createdAt,value
2023-05-15T00:01:46.534Z,97.10
2023-05-15T00:04:14.661Z,96.92
2023-05-15T00:06:42.887Z,96.78
2023-05-15T00:09:11.077Z,96.67
2023-05-15T00:11:42.728Z,96.58
2023-05-15T00:14:10.878Z,96.35
2023-05-15T00:16:41.404Z,96.25
2023-05-15T00:19:09.888Z,96.17
2023-05-15T00:21:38.764Z,96.00
2023-05-15T00:24:07.060Z,95.92
2023-05-15T00:26:35.360Z,95.73
2023-05-15T00:29:05.080Z,95.67
2023-05-15T00:31:35.135Z,95.39
2023-05-15T00:34:03.257Z,95.35
2023-05-15T00:36:31.884Z,95.13
2023-05-15T00:39:00.414Z,94.88
2023-05-15T00:41:28.925Z,94.96
2023-05-15T00:43:57.493Z,95.10
2023-05-15T00:46:27.524Z,95.20
2023-05-15T00:48:57.730Z,95.23
2023-05-15T00:51:27.501Z,95.37
2023-05-15T00:53:56.870Z,95.36
2023-05-15T00:56:25.838Z,95.23
2023-05-15T00:58:56.686Z,95.24
2023-05-15T01:01:25.792Z,95.23
2023-05-15T01:03:54.522Z,94.89
2023-05-15T01:06:22.611Z,94.83
2023-05-15T01:08:56.205Z,94.43
2023-05-15T01:11:27.970Z,94.30
2023-05-15T01:13:55.913Z,94.13
2023-05-15T01:16:23.957Z,93.94
2023-05-15T01:18:53.211Z,93.75
2023-05-15T01:21:34.511Z,93.74
2023-05-15T01:24:34.102Z,93.82
2023-05-15T01:27:24.669Z,94.04
2023-05-15T01:30:26.478Z,94.29
2023-05-15T01:33:17.991Z,94.67
2023-05-15T01:36:10.872Z,94.93
2023-05-15T01:38:53.637Z,95.37
2023-05-15T01:41:30.797Z,95.66
2023-05-15T01:44:07.466Z,95.97
2023-05-15T01:46:42.885Z,96.08
2023-05-15T01:49:13.675Z,96.39
2023-05-15T01:51:44.417Z,96.38
2023-05-15T01:54:14.871Z,96.65
2023-05-15T01:56:45.199Z,96.90
2023-05-15T01:59:15.298Z,96.97
2023-05-15T02:01:45.080Z,96.93
2023-05-15T02:04:13.518Z,96.87
2023-05-15T02:06:42.763Z,96.74
2023-05-15T02:09:16.001Z,96.90
2023-05-15T02:11:44.645Z,96.94
2023-05-15T02:14:14.764Z,96.92
2023-05-15T02:16:42.795Z,96.83
2023-05-15T02:19:10.797Z,96.75
2023-05-15T02:21:38.651Z,96.77
2023-05-15T02:24:07.986Z,96.67
2023-05-15T02:27:04.634Z,96.84
2023-05-15T02:29:48.538Z,96.99
2023-05-15T02:32:41.726Z,97.21
2023-05-15T02:35:33.517Z,97.34
2023-05-15T02:38:13.401Z,97.44
2023-05-15T02:40:41.841Z,97.64
2023-05-15T02:43:20.454Z,97.68
2023-05-15T02:45:49.666Z,97.77
2023-05-15T02:48:21.866Z,97.96
2023-05-15T02:50:49.935Z,97.89
2023-05-15T02:53:17.784Z,97.81
2023-05-15T02:55:45.942Z,98.57
2023-05-15T02:58:14.234Z,98.46
2023-05-15T03:00:42.016Z,98.50
2023-05-15T03:03:09.952Z,98.53
2023-05-15T03:05:37.814Z,98.44
2023-05-15T03:08:06.351Z,98.50
2023-05-15T03:10:34.381Z,98.31
2023-05-15T03:13:03.402Z,98.24
2023-05-15T03:15:31.307Z,97.96
2023-05-15T03:17:59.281Z,97.81
2023-05-15T03:20:27.271Z,97.65
2023-05-15T03:22:55.378Z,97.60
2023-05-15T03:25:23.644Z,97.67
2023-05-15T03:27:53.024Z,97.88
2023-05-15T03:30:20.931Z,97.97
2023-05-15T03:32:48.832Z,98.19
2023-05-15T03:35:27.383Z,98.28
2023-05-15T03:37:55.265Z,98.39
2023-05-15T03:40:25.322Z,98.71
2023-05-15T03:42:54.351Z,98.97
2023-05-15T03:45:22.294Z,98.97
2023-05-15T03:47:50.364Z,99.27
2023-05-15T03:50:20.260Z,99.37
2023-05-15T03:52:48.116Z,99.29
2023-05-15T03:55:18.409Z,99.48
2023-05-15T03:57:46.471Z,99.49
2023-05-15T04:00:15.557Z,99.50
2023-05-15T04:02:51.085Z,99.44
2023-05-15T04:05:22.638Z,99.50
2023-05-15T04:07:50.661Z,99.37
2023-05-15T04:10:18.760Z,99.29
2023-05-15T04:12:47.742Z,99.33
2023-05-15T04:15:22.850Z,99.33
2023-05-15T04:17:53.005Z,99.39
2023-05-15T04:20:24.924Z,99.38
2023-05-15T04:22:53.902Z,99.39
2023-05-15T04:25:22.124Z,99.25
2023-05-15T04:27:50.105Z,99.09
2023-05-15T04:30:18.285Z,98.99
2023-05-15T04:32:46.468Z,98.85
2023-05-15T04:35:15.517Z,98.76
2023-05-15T04:37:45.699Z,98.66
2023-05-15T04:40:16.495Z,98.37
2023-05-15T04:42:45.978Z,97.99
2023-05-15T04:45:14.792Z,97.99
2023-05-15T04:47:42.735Z,97.98
2023-05-15T04:50:10.914Z,97.74
2023-05-15T04:52:39.468Z,97.74
2023-05-15T04:55:08.639Z,97.99
2023-05-15T04:57:38.175Z,98.10
2023-05-15T05:00:13.040Z,98.24
2023-05-15T05:02:43.018Z,98.37
2023-05-15T05:05:11.290Z,98.95
2023-05-15T05:07:39.100Z,98.87
2023-05-15T05:10:07.680Z,99.29
2023-05-15T05:12:35.582Z,99.64
2023-05-15T05:15:03.758Z,99.99
2023-05-15T05:17:31.996Z,99.99
2023-05-15T05:19:59.959Z,99.99
2023-05-15T05:22:28.097Z,99.99
2023-05-15T05:24:57.210Z,99.99
2023-05-15T05:27:25.027Z,99.99
2023-05-15T05:29:54.203Z,99.42
2023-05-15T05:32:22.359Z,99.35
2023-05-15T05:34:50.589Z,99.62
2023-05-15T05:37:18.356Z,99.64
2023-05-15T05:39:46.974Z,99.30
2023-05-15T05:42:14.850Z,98.70
2023-05-15T05:44:42.716Z,98.32
2023-05-15T05:47:10.887Z,97.27
2023-05-15T05:49:41.823Z,95.52
2023-05-15T05:52:09.747Z,91.93
2023-05-15T05:54:37.765Z,88.65
2023-05-15T05:57:07.671Z,86.70
2023-05-15T05:59:37.382Z,84.14
2023-05-15T06:02:06.323Z,84.82
2023-05-15T06:04:36.299Z,83.77
2023-05-15T06:07:05.434Z,84.95
2023-05-15T06:09:33.381Z,84.68
2023-05-15T06:12:04.556Z,81.36
2023-05-15T06:14:32.684Z,78.73
2023-05-15T06:17:03.171Z,76.59
2023-05-15T06:19:32.692Z,74.42
2023-05-15T06:22:01.752Z,75.89
2023-05-15T06:24:29.719Z,76.29
2023-05-15T06:26:58.180Z,77.62
2023-05-15T06:29:26.285Z,77.08
2023-05-15T06:31:54.529Z,76.16
2023-05-15T06:34:22.394Z,75.90
2023-05-15T06:36:50.386Z,75.25
2023-05-15T06:39:18.303Z,74.26
2023-05-15T06:41:46.208Z,72.92
2023-05-15T06:44:14.218Z,73.05
2023-05-15T06:46:44.190Z,73.35
2023-05-15T06:49:12.390Z,75.70
2023-05-15T06:51:40.753Z,74.49
2023-05-15T06:54:12.600Z,73.67
2023-05-15T06:56:40.661Z,71.23
2023-05-15T06:59:08.618Z,72.30
2023-05-15T07:01:36.998Z,71.37
2023-05-15T07:04:05.243Z,70.86
2023-05-15T07:06:33.347Z,71.04
2023-05-15T07:09:01.494Z,70.71
2023-05-15T07:11:30.720Z,69.52
2023-05-15T07:14:00.865Z,71.05
2023-05-15T07:16:28.747Z,71.37
2023-05-15T07:18:56.843Z,71.19
2023-05-15T07:21:26.797Z,71.79
2023-05-15T07:24:02.038Z,72.06
2023-05-15T07:26:43.564Z,73.77
2023-05-15T07:29:18.523Z,74.85
2023-05-15T07:31:46.453Z,74.84
2023-05-15T07:34:14.469Z,74.77
2023-05-15T07:36:42.497Z,72.87
2023-05-15T07:39:11.437Z,72.95
2023-05-15T07:41:41.444Z,74.97
2023-05-15T07:44:09.645Z,75.05
2023-05-15T07:46:39.071Z,75.53
2023-05-15T07:49:07.254Z,71.41
2023-05-15T07:51:35.325Z,68.18
2023-05-15T07:54:04.699Z,66.75
2023-05-15T07:56:33.259Z,65.96
2023-05-15T07:59:01.146Z,64.68
2023-05-15T08:01:30.590Z,62.73
2023-05-15T08:03:59.470Z,62.21
2023-05-15T08:06:27.613Z,63.36
2023-05-15T08:08:55.573Z,63.78
2023-05-15T08:11:23.470Z,61.68
2023-05-15T08:13:51.504Z,60.56
2023-05-15T08:16:19.626Z,62.12
2023-05-15T08:18:47.876Z,63.69
2023-05-15T08:21:16.037Z,62.65
2023-05-15T08:23:43.835Z,61.38
2023-05-15T08:26:11.801Z,63.13
2023-05-15T08:28:39.628Z,62.42
2023-05-15T08:31:08.456Z,63.05
2023-05-15T08:33:36.996Z,61.93
2023-05-15T08:36:05.216Z,61.69
2023-05-15T08:38:33.255Z,62.50
2023-05-15T08:41:14.140Z,63.32
2023-05-15T08:43:43.961Z,63.83
2023-05-15T08:46:12.401Z,64.82
2023-05-15T08:48:42.218Z,65.19
2023-05-15T08:51:10.895Z,64.17
2023-05-15T08:53:39.101Z,62.52
2023-05-15T08:56:07.230Z,61.62
2023-05-15T08:58:35.423Z,61.81
2023-05-15T09:01:04.150Z,62.03
2023-05-15T09:03:32.102Z,60.06
2023-05-15T09:06:00.641Z,62.44
2023-05-15T09:08:32.312Z,62.06
2023-05-15T09:11:02.550Z,62.54
2023-05-15T09:13:31.422Z,62.30
2023-05-15T09:15:59.814Z,63.06
2023-05-15T09:18:30.249Z,62.45
2023-05-15T09:21:33.835Z,62.84
2023-05-15T09:24:23.649Z,63.68
2023-05-15T09:27:06.362Z,64.03
2023-05-15T09:29:39.783Z,62.01
2023-05-15T09:32:10.420Z,60.92
2023-05-15T09:34:43.150Z,62.03
2023-05-15T09:37:13.359Z,62.24
2023-05-15T09:39:43.176Z,60.79
2023-05-15T09:42:12.906Z,61.73
2023-05-15T09:44:45.195Z,60.38
2023-05-15T09:47:14.532Z,60.56
2023-05-15T09:49:45.484Z,61.41
2023-05-15T09:52:15.504Z,63.07
2023-05-15T09:54:49.519Z,64.58
2023-05-15T09:57:23.355Z,62.32
2023-05-15T09:59:51.356Z,62.13
2023-05-15T10:02:34.613Z,62.14
2023-05-15T10:05:02.612Z,62.70
2023-05-15T10:07:34.318Z,62.11
2023-05-15T10:10:03.763Z,62.09
2023-05-15T10:12:33.878Z,62.19
2023-05-15T10:15:03.490Z,60.56
2023-05-15T10:17:35.782Z,62.69
2023-05-15T10:20:07.105Z,60.94
2023-05-15T10:22:41.292Z,61.32
2023-05-15T10:25:33.023Z,61.01
2023-05-15T10:28:03.805Z,60.09
2023-05-15T10:30:34.101Z,58.50
2023-05-15T10:33:04.568Z,55.80
2023-05-15T10:35:33.812Z,57.53
2023-05-15T10:38:06.168Z,55.30
2023-05-15T10:40:37.979Z,54.28
2023-05-15T10:43:06.694Z,55.58
2023-05-15T10:45:35.813Z,57.62
2023-05-15T10:48:05.864Z,57.20
2023-05-15T10:50:37.541Z,57.66
2023-05-15T10:53:06.380Z,56.94
2023-05-15T10:55:36.349Z,58.22
2023-05-15T10:58:10.226Z,59.32
2023-05-15T11:00:45.333Z,58.99
2023-05-15T11:03:15.510Z,58.93
2023-05-15T11:06:10.835Z,58.69
2023-05-15T11:08:40.788Z,56.98
2023-05-15T11:11:08.800Z,57.10
2023-05-15T11:14:05.032Z,56.96
2023-05-15T11:16:58.020Z,57.36
2023-05-15T11:19:38.241Z,58.34
2023-05-15T11:22:09.015Z,58.20
2023-05-15T11:25:00.314Z,59.02
2023-05-15T11:27:39.208Z,60.58
2023-05-15T11:30:08.492Z,62.03
2023-05-15T11:33:09.902Z,61.14
2023-05-15T11:35:43.576Z,61.34
2023-05-15T11:38:12.776Z,60.86
2023-05-15T11:40:55.773Z,63.72
2023-05-15T11:43:28.430Z,64.14
2023-05-15T11:46:08.667Z,64.12
2023-05-15T11:48:45.107Z,62.25
2023-05-15T11:51:27.681Z,63.59
2023-05-15T11:53:56.677Z,63.68
2023-05-15T11:56:28.500Z,64.40
2023-05-15T11:58:58.578Z,64.39
2023-05-15T12:01:47.654Z,62.62
2023-05-15T12:04:17.969Z,63.69
2023-05-15T12:06:49.853Z,64.66
2023-05-15T12:09:22.726Z,65.62
2023-05-15T12:11:56.987Z,67.05
2023-05-15T12:14:32.000Z,67.96
2023-05-15T12:17:04.452Z,68.09
2023-05-15T12:19:36.286Z,69.31
2023-05-15T12:22:08.453Z,69.97
2023-05-15T12:24:39.812Z,69.60
2023-05-15T12:27:10.507Z,69.31
2023-05-15T12:29:40.504Z,70.14
2023-05-15T12:32:09.308Z,70.54
2023-05-15T12:34:37.742Z,71.05
2023-05-15T12:37:06.204Z,71.83
2023-05-15T12:39:34.074Z,71.64
2023-05-15T12:42:03.358Z,71.16
2023-05-15T12:44:32.416Z,71.49
2023-05-15T12:47:00.646Z,71.69
2023-05-15T12:49:28.513Z,71.08
2023-05-15T12:51:56.425Z,70.12
2023-05-15T12:54:25.096Z,70.20
2023-05-15T12:56:57.472Z,70.19
2023-05-15T12:59:31.245Z,70.74
2023-05-15T13:01:59.460Z,71.52
2023-05-15T13:04:27.939Z,71.27
2023-05-15T13:06:56.154Z,72.82
2023-05-15T13:09:25.369Z,72.44
2023-05-15T13:11:56.374Z,71.98
2023-05-15T13:14:28.643Z,72.23
2023-05-15T13:17:04.746Z,72.75
2023-05-15T13:19:32.869Z,71.90
2023-05-15T13:22:01.158Z,71.08
2023-05-15T13:24:29.032Z,71.88
2023-05-15T13:26:57.246Z,71.61
2023-05-15T13:29:25.362Z,70.73
2023-05-15T13:31:53.433Z,71.65
2023-05-15T13:34:21.632Z,72.30
2023-05-15T13:37:00.716Z,73.10
2023-05-15T13:39:28.657Z,72.67
2023-05-15T13:42:00.035Z,72.33
2023-05-15T13:44:28.324Z,72.29
2023-05-15T13:46:56.517Z,72.24
2023-05-15T13:49:24.992Z,73.44
2023-05-15T13:51:55.500Z,72.62
2023-05-15T13:54:24.242Z,73.36
2023-05-15T13:56:52.726Z,74.40
2023-05-15T13:59:22.421Z,75.45
2023-05-15T14:01:50.681Z,75.01
2023-05-15T14:04:18.907Z,74.90
2023-05-15T14:06:48.371Z,74.72
2023-05-15T14:09:16.347Z,74.62
2023-05-15T14:11:44.622Z,73.70
2023-05-15T14:14:12.694Z,74.12
2023-05-15T14:16:45.135Z,74.59
2023-05-15T14:19:13.109Z,74.75
2023-05-15T14:21:42.492Z,73.31
2023-05-15T14:24:10.732Z,72.95
2023-05-15T14:26:39.339Z,72.36
2023-05-15T14:29:09.936Z,72.13
2023-05-15T14:31:39.241Z,72.21
2023-05-15T14:34:08.794Z,72.21
2023-05-15T14:36:36.748Z,72.38
2023-05-15T14:39:04.863Z,72.45
2023-05-15T14:41:34.070Z,71.76
2023-05-15T14:44:01.983Z,72.77
2023-05-15T14:46:30.039Z,71.87
2023-05-15T14:48:58.085Z,71.41
2023-05-15T14:51:27.392Z,71.39
2023-05-15T14:53:55.505Z,70.70
2023-05-15T14:56:24.249Z,71.79
2023-05-15T14:58:53.676Z,71.16
2023-05-15T15:01:21.672Z,70.52
2023-05-15T15:03:49.699Z,71.38
2023-05-15T15:06:17.858Z,70.08
2023-05-15T15:08:46.252Z,71.92
2023-05-15T15:11:14.496Z,71.72
2023-05-15T15:13:42.386Z,71.12
2023-05-15T15:16:10.313Z,71.81
2023-05-15T15:18:38.476Z,72.30
2023-05-15T15:21:06.483Z,72.46
2023-05-15T15:23:35.836Z,73.22
2023-05-15T15:26:04.036Z,73.80
2023-05-15T15:28:33.795Z,74.62
2023-05-15T15:31:01.749Z,74.76
2023-05-15T15:33:29.702Z,74.94
2023-05-15T15:35:57.690Z,74.99
2023-05-15T15:38:25.564Z,75.11
2023-05-15T15:40:53.417Z,76.09
2023-05-15T15:43:21.281Z,77.10
2023-05-15T15:45:53.334Z,77.12
2023-05-15T15:48:21.564Z,77.57
2023-05-15T15:50:51.799Z,77.60
2023-05-15T15:53:20.032Z,77.67
2023-05-15T15:55:47.991Z,77.67
2023-05-15T15:58:19.841Z,78.25
2023-05-15T16:00:48.000Z,78.48
2023-05-15T16:03:18.214Z,78.72
2023-05-15T16:05:46.629Z,78.80
2023-05-15T16:08:15.053Z,78.98
2023-05-15T16:10:45.048Z,79.21
2023-05-15T16:13:13.819Z,78.86
2023-05-15T16:15:43.721Z,79.40
2023-05-15T16:18:12.101Z,80.03
2023-05-15T16:20:40.054Z,80.10
2023-05-15T16:23:09.575Z,80.18
2023-05-15T16:25:37.491Z,80.11
2023-05-15T16:28:05.883Z,80.29
2023-05-15T16:30:47.915Z,79.82
2023-05-15T16:33:18.212Z,79.63
2023-05-15T16:35:47.417Z,79.10
2023-05-15T16:38:18.197Z,78.68
2023-05-15T16:40:51.351Z,79.30
2023-05-15T16:43:21.953Z,79.75
2023-05-15T16:46:01.392Z,79.96
2023-05-15T16:48:29.379Z,80.00
2023-05-15T16:50:59.532Z,79.94
2023-05-15T16:53:27.971Z,79.91
2023-05-15T16:55:56.177Z,80.16
2023-05-15T16:58:24.551Z,80.10
2023-05-15T17:00:55.044Z,80.48
2023-05-15T17:03:24.095Z,80.51
2023-05-15T17:05:52.483Z,80.45
2023-05-15T17:08:20.476Z,80.37
2023-05-15T17:10:48.537Z,80.50
2023-05-15T17:13:18.696Z,80.89
2023-05-15T17:15:51.105Z,80.61
2023-05-15T17:18:19.657Z,81.02
2023-05-15T17:20:47.933Z,81.37
2023-05-15T17:23:21.006Z,81.46
2023-05-15T17:25:50.416Z,81.66
2023-05-15T17:28:20.826Z,81.91
2023-05-15T17:30:51.185Z,81.80
2023-05-15T17:33:23.750Z,81.89
2023-05-15T17:35:52.629Z,80.88
2023-05-15T17:38:20.712Z,81.22
2023-05-15T17:40:49.888Z,81.05
2023-05-15T17:43:19.019Z,81.08
2023-05-15T17:45:47.413Z,80.98
2023-05-15T17:48:16.907Z,81.23
2023-05-15T17:50:45.107Z,81.84
2023-05-15T17:53:18.877Z,81.93
2023-05-15T17:55:48.715Z,81.51
2023-05-15T17:58:16.918Z,82.09
2023-05-15T18:00:44.888Z,82.12
2023-05-15T18:03:12.984Z,82.47
2023-05-15T18:05:41.437Z,82.47
2023-05-15T18:08:10.118Z,83.05
2023-05-15T18:10:38.416Z,82.92
2023-05-15T18:13:13.168Z,82.86
2023-05-15T18:15:47.356Z,83.57
2023-05-15T18:18:15.514Z,83.59
2023-05-15T18:20:43.711Z,84.05
2023-05-15T18:23:12.750Z,84.45
2023-05-15T18:25:44.657Z,85.16
2023-05-15T18:28:14.984Z,86.61
2023-05-15T18:30:45.992Z,88.15
2023-05-15T18:33:14.049Z,89.63
2023-05-15T18:35:42.401Z,89.56
2023-05-15T18:38:10.304Z,90.64
2023-05-15T18:40:38.747Z,91.26
2023-05-15T18:43:07.525Z,91.65
2023-05-15T18:45:36.048Z,91.52
2023-05-15T18:48:05.952Z,91.69
2023-05-15T18:50:35.155Z,91.70
2023-05-15T18:53:06.009Z,91.47
2023-05-15T18:55:59.713Z,91.28
2023-05-15T18:58:29.094Z,91.24
2023-05-15T19:00:58.181Z,91.24
2023-05-15T19:03:30.477Z,90.98
2023-05-15T19:05:59.957Z,91.25
2023-05-15T19:08:31.694Z,90.80
2023-05-15T19:11:01.669Z,91.19
2023-05-15T19:13:33.176Z,91.13
2023-05-15T19:16:04.664Z,90.90
2023-05-15T19:18:32.951Z,91.18
2023-05-15T19:21:02.211Z,91.28
2023-05-15T19:23:30.568Z,91.89
2023-05-15T19:26:01.028Z,92.14
2023-05-15T19:28:31.632Z,93.06
2023-05-15T19:31:00.051Z,93.62
2023-05-15T19:33:28.177Z,94.62
2023-05-15T19:35:56.857Z,95.03
2023-05-15T19:38:24.942Z,95.40
2023-05-15T19:40:53.159Z,96.21
2023-05-15T19:43:23.228Z,95.70
2023-05-15T19:45:53.564Z,95.46
2023-05-15T19:48:21.873Z,95.17
2023-05-15T19:50:49.989Z,95.35
2023-05-15T19:53:20.534Z,95.02
2023-05-15T19:55:48.988Z,95.00
2023-05-15T19:58:22.317Z,95.30
2023-05-15T20:00:52.697Z,95.56
2023-05-15T20:03:21.362Z,95.30
2023-05-15T20:05:50.076Z,95.39
2023-05-15T20:08:18.273Z,95.95
2023-05-15T20:10:52.297Z,95.65
2023-05-15T20:13:21.073Z,96.08
2023-05-15T20:15:57.815Z,95.60
2023-05-15T20:18:32.131Z,94.56
2023-05-15T20:21:01.966Z,95.10
2023-05-15T20:23:30.025Z,96.26
2023-05-15T20:25:58.240Z,95.30
2023-05-15T20:28:27.354Z,95.81
2023-05-15T20:30:57.617Z,95.98
2023-05-15T20:33:25.603Z,96.21
2023-05-15T20:35:54.094Z,96.63
2023-05-15T20:38:25.720Z,96.91
2023-05-15T20:40:54.444Z,96.19
2023-05-15T20:43:23.063Z,96.30
2023-05-15T20:45:50.912Z,96.74
2023-05-15T20:48:19.897Z,96.07
2023-05-15T20:50:47.887Z,95.61
2023-05-15T20:53:15.829Z,95.36
2023-05-15T20:55:43.729Z,95.42
2023-05-15T20:58:11.664Z,94.81
2023-05-15T21:00:42.566Z,93.96
2023-05-15T21:03:14.876Z,94.12
2023-05-15T21:05:42.968Z,94.28
2023-05-15T21:08:10.926Z,94.19
2023-05-15T21:10:40.142Z,93.56
2023-05-15T21:13:09.601Z,93.63
2023-05-15T21:15:37.663Z,93.98
2023-05-15T21:18:06.594Z,93.91
2023-05-15T21:20:35.381Z,93.02
2023-05-15T21:23:05.412Z,93.65
2023-05-15T21:25:33.995Z,93.75
2023-05-15T21:28:01.946Z,92.64
2023-05-15T21:30:29.949Z,92.30
2023-05-15T21:32:57.980Z,92.22
2023-05-15T21:35:28.614Z,92.50
2023-05-15T21:38:00.746Z,93.04
2023-05-15T21:40:29.957Z,93.15
2023-05-15T21:43:01.949Z,92.19
2023-05-15T21:45:30.562Z,91.93
2023-05-15T21:47:59.831Z,92.27
2023-05-15T21:50:27.969Z,92.08
2023-05-15T21:52:57.338Z,92.02
2023-05-15T21:55:26.494Z,92.08
2023-05-15T21:57:55.414Z,92.54
2023-05-15T22:00:23.632Z,92.64
2023-05-15T22:02:52.227Z,92.75
2023-05-15T22:05:20.210Z,92.46
2023-05-15T22:07:50.021Z,92.32
2023-05-15T22:10:17.959Z,91.81
2023-05-15T22:12:46.868Z,92.03
2023-05-15T22:15:15.004Z,92.25
2023-05-15T22:17:42.923Z,91.64
2023-05-15T22:20:11.713Z,91.47
2023-05-15T22:22:41.847Z,91.46
2023-05-15T22:25:10.800Z,90.89
2023-05-15T22:27:38.960Z,90.89
2023-05-15T22:30:07.581Z,90.54
2023-05-15T22:32:35.858Z,90.60
2023-05-15T22:35:04.327Z,90.57
2023-05-15T22:37:32.206Z,90.99
2023-05-15T22:40:00.458Z,91.24
2023-05-15T22:42:28.897Z,91.17
2023-05-15T22:44:57.818Z,91.37
2023-05-15T22:47:28.358Z,91.28
2023-05-15T22:49:57.280Z,91.27
2023-05-15T22:52:26.344Z,91.35
2023-05-15T22:54:54.202Z,91.47
2023-05-15T22:57:22.575Z,91.48
2023-05-15T22:59:50.379Z,91.58
2023-05-15T23:02:18.208Z,91.63
2023-05-15T23:04:46.786Z,91.12
2023-05-15T23:07:14.724Z,91.07
2023-05-15T23:09:42.952Z,91.11
2023-05-15T23:12:10.856Z,91.11
2023-05-15T23:14:39.952Z,91.14
2023-05-15T23:17:07.832Z,90.76
2023-05-15T23:19:35.872Z,90.71
2023-05-15T23:22:03.815Z,90.72
2023-05-15T23:24:31.689Z,90.75
2023-05-15T23:26:59.634Z,90.45
2023-05-15T23:29:30.789Z,90.22
2023-05-15T23:31:58.665Z,90.42
2023-05-15T23:34:30.226Z,90.16
2023-05-15T23:36:58.169Z,90.13
2023-05-15T23:39:25.947Z,90.45
2023-05-15T23:41:54.345Z,90.35
2023-05-15T23:44:22.192Z,90.18
2023-05-15T23:46:50.128Z,90.14
2023-05-15T23:49:18.065Z,90.17
2023-05-15T23:51:46.208Z,90.05
2023-05-15T23:54:14.028Z,90.35
2023-05-15T23:56:43.781Z,90.31
2023-05-15T23:59:11.627Z,89.89
